Observations for LOSSIEMOUTH RAF, United Kingdom (EGQS)

EGQS 230950Z 25017KT 9999 FEW030 SCT060 BKN120 15/06 Q1025 BLU NOSIG
EGQS 230850Z 26013KT 9999 -RA FEW026 BKN080 13/07 Q1026 BLU 
EGQS 230750Z 26011KT 9999 FEW035 BKN080 13/06 Q1026 BLU 
EGQS 230650Z 25009KT 9999 SCT035 BKN120 12/07 Q1026 BLU 
EGQS 230550Z 26012KT 9999 FEW038 SCT090 BKN180 11/07 Q1026 BLU  
EGQS 230450Z 25011KT 9999 FEW035 SCT080 BKN160 10/07 Q1026 BLU  
EGQS 230350Z 25010KT 9999 SCT034 SCT080 BKN100 10/06 Q1026 BLU  
EGQS 230250Z 22008KT 9999 SCT038 SCT080 BKN100 10/06 Q1026 BLU  
EGQS 230150Z 24009KT 9999 FEW038 SCT080 BKN110 10/06 Q1027 BLU  
EGQS 230050Z 25010KT 9999 -SHRA FEW040 SCT090 BKN120 11/06 Q1027 BLU
EGQS 222350Z 27010KT 9999 FEW040 SCT100 BKN130 11/07 Q1028 BLU  
EGQS 222250Z 29009KT 9999 FEW040 SCT090 BKN130 11/06 Q1028 BLU  
EGQS 222150Z 29015KT 9999 FEW040 SCT100 BKN130 12/07 Q1028 BLU  
EGQS 222050Z 29011KT 9999 FEW040 SCT110 12/06 Q1028 BLU 
EGQS 221950Z 29013KT 9999 FEW040 SCT110 13/06 Q1028 BLU 
EGQS 221850Z 30012KT 9999 FEW038 SCT110 13/07 Q1028 BLU 
EGQS 221750Z 29014KT 9999 FEW040 14/07 Q1028 BLU
EGQS 221650Z 30014KT 9999 FEW030 15/07 Q1028 BLU NOSIG  
EGQS 221550Z 30018KT 9999 FEW044 14/06 Q1028 BLU NOSIG  
EGQS 221450Z 28012KT 9999 FEW026 BKN036 15/06 Q1029 BLU NOSIG   
EGQS 221350Z 30013KT 9999 SCT034 BKN060 15/07 Q1029 BLU NOSIG   
EGQS 221250Z 27012KT 9999 SCT033 SCT050 15/07 Q1029 BLU NOSIG   
EGQS 221150Z 28013KT 9999 FEW028 BKN060 14/07 Q1030 BLU NOSIG   
EGQS 221050Z 27011KT 9999 FEW020 BKN026 13/08 Q1030 BLU TEMPO SCT020 WHT
EGQS 220950Z 28015KT 9999 SCT020 SCT050 BKN080 13/06 Q1030 WHT TEMPO FEW020 BLU